createdAt,value
2022-11-29T00:02:00.416Z,21.55
2022-11-29T00:04:27.622Z,21.15
2022-11-29T00:06:54.148Z,23.67
2022-11-29T00:09:20.685Z,23.55
2022-11-29T00:12:05.703Z,23.77
2022-11-29T00:17:11.736Z,24.05
2022-11-29T00:19:40.410Z,24.37
2022-11-29T00:22:06.927Z,24.30
2022-11-29T00:24:33.742Z,23.02
2022-11-29T00:27:01.163Z,23.70
2022-11-29T00:37:27.752Z,22.10
2022-11-29T00:42:50.683Z,23.55
2022-11-29T00:45:17.669Z,25.25
2022-11-29T00:50:45.791Z,22.90
2022-11-29T00:56:05.310Z,20.77
2022-11-29T01:38:20.721Z,22.27
2022-11-29T01:43:26.719Z,22.10
2022-11-29T01:45:53.964Z,22.45
2022-11-29T01:48:44.139Z,21.65
2022-11-29T01:51:57.196Z,22.52
2022-11-29T01:55:01.221Z,21.62
2022-11-29T02:10:19.087Z,22.30
2022-11-29T02:15:39.886Z,21.65
2022-11-29T02:39:09.539Z,19.12
2022-11-29T02:42:00.921Z,19.58
2022-11-29T02:44:57.227Z,21.70
2022-11-29T02:48:07.882Z,21.33
2022-11-29T02:51:01.652Z,20.12
2022-11-29T02:53:37.213Z,19.60
2022-11-29T02:56:14.381Z,19.67
2022-11-29T03:02:37.226Z,18.83
2022-11-29T03:05:29.528Z,18.62
2022-11-29T03:08:16.820Z,18.20
2022-11-29T03:10:52.522Z,17.48
2022-11-29T03:13:34.134Z,18.73
2022-11-29T03:24:07.706Z,16.27
2022-11-29T03:26:51.500Z,16.75
2022-11-29T03:29:29.807Z,16.83
2022-11-29T03:32:15.571Z,17.33
2022-11-29T03:41:04.119Z,17.17
2022-11-29T03:43:56.899Z,16.73
2022-11-29T04:25:58.608Z,17.75
2022-11-29T04:28:37.327Z,16.70
2022-11-29T04:31:37.297Z,15.73
2022-11-29T04:34:16.287Z,16.67
2022-11-29T04:37:07.538Z,16.17
2022-11-29T04:39:34.146Z,14.52
2022-11-29T04:42:23.191Z,15.32
2022-11-29T04:44:52.686Z,16.15
2022-11-29T04:48:06.131Z,16.83
2022-11-29T04:59:07.864Z,16.48
2022-11-29T05:01:40.743Z,17.45
2022-11-29T05:04:21.059Z,16.10
2022-11-29T05:13:26.107Z,18.37
2022-11-29T05:18:56.745Z,17.65
2022-11-29T05:41:17.624Z,17.42
2022-11-29T05:44:04.707Z,18.25
2022-11-29T05:46:36.185Z,18.23
2022-11-29T05:49:18.269Z,17.12
2022-11-29T05:51:54.183Z,17.45
2022-11-29T07:18:08.788Z,16.70
2022-11-29T07:32:50.023Z,17.60
2022-11-29T07:35:23.584Z,17.73
2022-11-29T07:37:57.581Z,18.83
2022-11-29T07:43:11.850Z,18.87
2022-11-29T07:45:39.952Z,19.45
2022-11-29T07:48:07.019Z,16.98
2022-11-29T07:50:35.749Z,16.65
2022-11-29T07:53:02.417Z,17.95
2022-11-29T08:00:01.547Z,18.45
2022-11-29T08:28:39.886Z,18.55
2022-11-29T08:31:09.244Z,18.58
2022-11-29T08:33:37.997Z,19.73
2022-11-29T08:36:09.926Z,19.40
2022-11-29T08:38:39.113Z,19.62
2022-11-29T08:41:08.680Z,18.87
2022-11-29T08:43:35.850Z,19.05
2022-11-29T08:46:05.546Z,18.42
2022-11-29T08:48:36.538Z,18.23
2022-11-29T08:51:04.446Z,17.37
2022-11-29T08:53:43.367Z,17.30
2022-11-29T08:56:49.808Z,16.92
2022-11-29T08:58:59.050Z,17.20
2022-11-29T09:01:25.662Z,16.33
2022-11-29T09:04:05.248Z,18.48
2022-11-29T09:06:39.486Z,17.65
2022-11-29T09:09:06.491Z,17.55
2022-11-29T09:43:50.474Z,17.33
2022-11-29T09:54:27.321Z,17.37
2022-11-29T09:56:55.754Z,17.77
2022-11-29T09:59:46.128Z,16.85
2022-11-29T10:02:59.607Z,17.08
2022-11-29T10:06:08.030Z,15.75
2022-11-29T10:08:42.805Z,16.58
2022-11-29T10:36:47.965Z,17.08
2022-11-29T11:42:37.726Z,16.33
2022-11-29T12:40:05.420Z,17.60
2022-11-29T13:00:13.283Z,19.30
2022-11-29T13:05:27.211Z,17.75
2022-11-29T13:08:15.180Z,17.98
2022-11-29T13:11:00.686Z,20.15
2022-11-29T13:13:46.300Z,19.98
2022-11-29T13:43:22.735Z,19.83
2022-11-29T13:46:27.471Z,20.45
2022-11-29T13:48:56.580Z,20.85
2022-11-29T13:51:32.121Z,21.50
2022-11-29T13:54:34.569Z,19.87
2022-11-29T13:57:10.292Z,19.80
2022-11-29T13:59:56.886Z,20.42
2022-11-29T14:02:32.335Z,19.42
2022-11-29T14:50:40.665Z,21.30
2022-11-29T14:53:39.956Z,20.35
2022-11-29T15:01:24.309Z,31.40
2022-11-29T15:04:13.596Z,25.48
2022-11-29T15:06:53.085Z,24.17
2022-11-29T15:09:31.777Z,22.17
2022-11-29T15:29:18.276Z,26.55
2022-11-29T15:31:56.394Z,22.17
2022-11-29T15:34:46.561Z,22.65
2022-11-29T18:16:47.271Z,27.50
2022-11-29T21:01:06.030Z,23.12
2022-11-29T21:03:32.678Z,22.02
2022-11-29T21:06:03.193Z,21.33
2022-11-29T21:08:30.221Z,21.52
2022-11-29T21:11:02.880Z,20.42
2022-11-29T21:13:29.801Z,22.77
2022-11-29T21:15:57.275Z,21.50
2022-11-29T21:18:27.974Z,20.30
2022-11-29T21:21:06.313Z,19.33
2022-11-29T21:23:42.858Z,18.12
2022-11-29T21:26:18.696Z,19.17
2022-11-29T21:29:00.607Z,18.92
2022-11-29T21:31:27.426Z,18.98
2022-11-29T21:33:54.303Z,17.95
2022-11-29T21:36:21.500Z,18.67
2022-11-29T21:38:53.869Z,17.95
2022-11-29T21:41:21.906Z,18.98
2022-11-29T21:44:06.045Z,17.85
2022-11-29T21:46:34.503Z,17.20
2022-11-29T21:49:02.123Z,17.42
2022-11-29T21:51:28.662Z,19.05
2022-11-29T21:53:55.234Z,18.67
2022-11-29T21:56:21.885Z,19.00
2022-11-29T21:58:48.503Z,18.65
2022-11-29T22:01:18.325Z,17.62
2022-11-29T22:03:45.356Z,16.98
2022-11-29T22:06:14.982Z,17.10
2022-11-29T22:08:44.605Z,18.92
2022-11-29T22:22:59.100Z,16.02
2022-11-29T22:25:26.401Z,16.37
2022-11-29T22:50:52.931Z,15.60
2022-11-29T22:56:10.438Z,18.20
2022-11-29T22:58:37.652Z,17.00
2022-11-29T23:01:13.844Z,16.40
2022-11-29T23:03:57.054Z,15.65
2022-11-29T23:06:26.203Z,17.85
2022-11-29T23:08:55.155Z,15.70
2022-11-29T23:11:24.365Z,16.70
2022-11-29T23:13:51.120Z,15.75
2022-11-29T23:16:20.555Z,15.30
2022-11-29T23:19:11.406Z,15.55
2022-11-29T23:22:12.388Z,15.65
2022-11-29T23:24:53.905Z,15.40
2022-11-29T23:27:25.791Z,16.23
2022-11-29T23:29:52.931Z,16.90
2022-11-29T23:44:05.693Z,15.63
2022-11-29T23:47:02.227Z,16.67
2022-11-29T23:49:40.536Z,14.90
